sensor_id;sensor_type;location;lat;lon;timestamp;P1;durP1;ratioP1;P2;durP2;ratioP2
3677;SDS011;1855;50.934;6.958;2023-07-30T00:00:58;2.90;;;2.47;;
3677;SDS011;1855;50.934;6.958;2023-07-30T00:03:25;3.50;;;2.70;;
3677;SDS011;1855;50.934;6.958;2023-07-30T00:05:52;4.10;;;3.35;;
3677;SDS011;1855;50.934;6.958;2023-07-30T00:08:19;3.40;;;2.72;;
3677;SDS011;1855;50.934;6.958;2023-07-30T00:10:47;2.80;;;2.50;;
3677;SDS011;1855;50.934;6.958;2023-07-30T00:13:14;2.63;;;2.20;;
3677;SDS011;1855;50.934;6.958;2023-07-30T00:15:41;3.63;;;2.65;;
3677;SDS011;1855;50.934;6.958;2023-07-30T00:18:08;3.50;;;2.60;;
3677;SDS011;1855;50.934;6.958;2023-07-30T00:20:34;3.80;;;2.50;;
3677;SDS011;1855;50.934;6.958;2023-07-30T00:23:01;4.45;;;2.97;;
3677;SDS011;1855;50.934;6.958;2023-07-30T00:25:28;4.53;;;2.70;;
3677;SDS011;1855;50.934;6.958;2023-07-30T00:27:56;4.30;;;3.00;;
3677;SDS011;1855;50.934;6.958;2023-07-30T00:30:23;3.15;;;2.50;;
3677;SDS011;1855;50.934;6.958;2023-07-30T00:32:50;3.08;;;2.60;;
3677;SDS011;1855;50.934;6.958;2023-07-30T00:35:16;3.30;;;2.40;;
3677;SDS011;1855;50.934;6.958;2023-07-30T00:37:43;2.85;;;2.20;;
3677;SDS011;1855;50.934;6.958;2023-07-30T00:40:10;3.72;;;2.30;;
3677;SDS011;1855;50.934;6.958;2023-07-30T00:42:37;3.30;;;2.45;;
3677;SDS011;1855;50.934;6.958;2023-07-30T00:45:06;3.60;;;2.40;;
3677;SDS011;1855;50.934;6.958;2023-07-30T00:47:34;3.58;;;2.80;;
3677;SDS011;1855;50.934;6.958;2023-07-30T00:50:02;4.50;;;2.60;;
3677;SDS011;1855;50.934;6.958;2023-07-30T00:52:29;2.83;;;2.47;;
3677;SDS011;1855;50.934;6.958;2023-07-30T00:54:56;2.88;;;2.40;;
3677;SDS011;1855;50.934;6.958;2023-07-30T00:57:23;2.92;;;2.67;;
3677;SDS011;1855;50.934;6.958;2023-07-30T00:59:51;4.38;;;2.60;;
3677;SDS011;1855;50.934;6.958;2023-07-30T01:02:20;4.40;;;2.85;;
3677;SDS011;1855;50.934;6.958;2023-07-30T01:04:47;3.72;;;2.70;;
3677;SDS011;1855;50.934;6.958;2023-07-30T01:07:14;3.42;;;2.70;;
3677;SDS011;1855;50.934;6.958;2023-07-30T01:09:41;2.72;;;2.53;;
3677;SDS011;1855;50.934;6.958;2023-07-30T01:12:08;3.73;;;2.80;;
3677;SDS011;1855;50.934;6.958;2023-07-30T01:14:35;3.30;;;2.60;;
3677;SDS011;1855;50.934;6.958;2023-07-30T01:17:04;3.20;;;2.90;;
3677;SDS011;1855;50.934;6.958;2023-07-30T01:19:32;3.20;;;2.90;;
3677;SDS011;1855;50.934;6.958;2023-07-30T01:22:00;3.90;;;2.50;;
3677;SDS011;1855;50.934;6.958;2023-07-30T01:24:26;2.70;;;2.50;;
3677;SDS011;1855;50.934;6.958;2023-07-30T01:26:55;3.80;;;3.00;;
3677;SDS011;1855;50.934;6.958;2023-07-30T01:29:31;3.47;;;2.40;;
3677;SDS011;1855;50.934;6.958;2023-07-30T01:32:04;3.03;;;2.33;;
3677;SDS011;1855;50.934;6.958;2023-07-30T01:34:34;3.97;;;2.40;;
3677;SDS011;1855;50.934;6.958;2023-07-30T01:37:03;3.70;;;2.60;;
3677;SDS011;1855;50.934;6.958;2023-07-30T01:39:31;2.70;;;2.33;;
3677;SDS011;1855;50.934;6.958;2023-07-30T01:41:59;3.35;;;2.50;;
3677;SDS011;1855;50.934;6.958;2023-07-30T01:44:26;3.30;;;2.30;;
3677;SDS011;1855;50.934;6.958;2023-07-30T01:46:53;3.22;;;2.20;;
3677;SDS011;1855;50.934;6.958;2023-07-30T01:49:19;3.25;;;2.03;;
3677;SDS011;1855;50.934;6.958;2023-07-30T01:51:46;3.03;;;2.10;;
3677;SDS011;1855;50.934;6.958;2023-07-30T01:54:14;2.60;;;2.10;;
3677;SDS011;1855;50.934;6.958;2023-07-30T01:56:41;3.80;;;2.20;;
3677;SDS011;1855;50.934;6.958;2023-07-30T01:59:07;3.78;;;2.45;;
3677;SDS011;1855;50.934;6.958;2023-07-30T02:01:34;2.97;;;2.10;;
3677;SDS011;1855;50.934;6.958;2023-07-30T02:04:01;3.15;;;2.10;;
3677;SDS011;1855;50.934;6.958;2023-07-30T02:06:27;4.20;;;2.80;;
3677;SDS011;1855;50.934;6.958;2023-07-30T02:08:54;3.67;;;2.30;;
3677;SDS011;1855;50.934;6.958;2023-07-30T02:11:22;3.80;;;2.30;;
3677;SDS011;1855;50.934;6.958;2023-07-30T02:13:49;5.43;;;2.60;;
3677;SDS011;1855;50.934;6.958;2023-07-30T02:16:16;3.67;;;2.30;;
3677;SDS011;1855;50.934;6.958;2023-07-30T02:18:42;4.38;;;2.65;;
3677;SDS011;1855;50.934;6.958;2023-07-30T02:21:09;2.10;;;1.80;;
3677;SDS011;1855;50.934;6.958;2023-07-30T02:23:36;3.63;;;2.10;;
3677;SDS011;1855;50.934;6.958;2023-07-30T02:26:02;5.30;;;2.30;;
3677;SDS011;1855;50.934;6.958;2023-07-30T02:28:30;3.80;;;2.10;;
3677;SDS011;1855;50.934;6.958;2023-07-30T02:30:57;3.20;;;2.22;;
3677;SDS011;1855;50.934;6.958;2023-07-30T02:33:24;3.10;;;2.30;;
3677;SDS011;1855;50.934;6.958;2023-07-30T02:35:51;5.30;;;2.53;;
3677;SDS011;1855;50.934;6.958;2023-07-30T02:38:17;3.47;;;2.05;;
3677;SDS011;1855;50.934;6.958;2023-07-30T02:40:44;3.60;;;2.10;;
3677;SDS011;1855;50.934;6.958;2023-07-30T02:43:11;3.70;;;2.00;;
3677;SDS011;1855;50.934;6.958;2023-07-30T02:45:39;4.00;;;2.10;;
3677;SDS011;1855;50.934;6.958;2023-07-30T02:48:05;4.00;;;2.47;;
3677;SDS011;1855;50.934;6.958;2023-07-30T02:50:32;4.32;;;2.10;;
3677;SDS011;1855;50.934;6.958;2023-07-30T02:52:59;3.78;;;1.90;;
3677;SDS011;1855;50.934;6.958;2023-07-30T02:55:25;4.20;;;2.20;;
3677;SDS011;1855;50.934;6.958;2023-07-30T02:57:52;6.93;;;2.50;;
3677;SDS011;1855;50.934;6.958;2023-07-30T03:00:19;3.95;;;1.90;;
3677;SDS011;1855;50.934;6.958;2023-07-30T03:02:47;4.35;;;2.30;;
3677;SDS011;1855;50.934;6.958;2023-07-30T03:05:14;3.72;;;2.20;;
3677;SDS011;1855;50.934;6.958;2023-07-30T03:07:41;4.07;;;2.40;;
3677;SDS011;1855;50.934;6.958;2023-07-30T03:10:08;4.13;;;2.70;;
3677;SDS011;1855;50.934;6.958;2023-07-30T03:12:35;4.55;;;2.30;;
3677;SDS011;1855;50.934;6.958;2023-07-30T03:15:02;4.60;;;2.10;;
3677;SDS011;1855;50.934;6.958;2023-07-30T03:17:29;3.83;;;2.20;;
3677;SDS011;1855;50.934;6.958;2023-07-30T03:19:58;5.13;;;2.40;;
3677;SDS011;1855;50.934;6.958;2023-07-30T03:22:24;3.58;;;2.40;;
3677;SDS011;1855;50.934;6.958;2023-07-30T03:24:51;3.97;;;2.63;;
3677;SDS011;1855;50.934;6.958;2023-07-30T03:27:18;4.22;;;2.22;;
3677;SDS011;1855;50.934;6.958;2023-07-30T03:29:44;5.82;;;2.50;;
3677;SDS011;1855;50.934;6.958;2023-07-30T03:32:11;4.20;;;2.53;;
3677;SDS011;1855;50.934;6.958;2023-07-30T03:34:38;4.88;;;3.00;;
3677;SDS011;1855;50.934;6.958;2023-07-30T03:37:06;4.90;;;2.40;;
3677;SDS011;1855;50.934;6.958;2023-07-30T03:39:33;3.50;;;2.50;;
3677;SDS011;1855;50.934;6.958;2023-07-30T03:41:59;4.78;;;2.92;;
3677;SDS011;1855;50.934;6.958;2023-07-30T03:44:26;4.75;;;2.60;;
3677;SDS011;1855;50.934;6.958;2023-07-30T03:46:53;4.68;;;2.60;;
3677;SDS011;1855;50.934;6.958;2023-07-30T03:49:19;3.50;;;2.50;;
3677;SDS011;1855;50.934;6.958;2023-07-30T03:51:46;4.07;;;2.55;;
3677;SDS011;1855;50.934;6.958;2023-07-30T03:54:15;4.20;;;2.63;;
3677;SDS011;1855;50.934;6.958;2023-07-30T03:56:41;5.25;;;2.50;;
3677;SDS011;1855;50.934;6.958;2023-07-30T03:59:08;8.93;;;2.80;;
3677;SDS011;1855;50.934;6.958;2023-07-30T04:01:35;4.40;;;2.30;;
3677;SDS011;1855;50.934;6.958;2023-07-30T04:04:02;5.32;;;2.58;;
3677;SDS011;1855;50.934;6.958;2023-07-30T04:06:28;3.40;;;2.30;;
3677;SDS011;1855;50.934;6.958;2023-07-30T04:08:55;4.10;;;2.40;;
3677;SDS011;1855;50.934;6.958;2023-07-30T04:11:23;4.00;;;2.60;;
3677;SDS011;1855;50.934;6.958;2023-07-30T04:13:50;3.90;;;2.50;;
3677;SDS011;1855;50.934;6.958;2023-07-30T04:16:16;5.50;;;2.72;;
3677;SDS011;1855;50.934;6.958;2023-07-30T04:18:43;6.30;;;2.75;;
3677;SDS011;1855;50.934;6.958;2023-07-30T04:21:10;3.50;;;2.30;;
3677;SDS011;1855;50.934;6.958;2023-07-30T04:23:37;3.50;;;2.30;;
3677;SDS011;1855;50.934;6.958;2023-07-30T04:26:03;5.07;;;2.90;;
3677;SDS011;1855;50.934;6.958;2023-07-30T04:28:31;4.33;;;2.50;;
3677;SDS011;1855;50.934;6.958;2023-07-30T04:30:58;4.88;;;2.70;;
3677;SDS011;1855;50.934;6.958;2023-07-30T04:33:25;4.93;;;2.50;;
3677;SDS011;1855;50.934;6.958;2023-07-30T04:35:52;4.70;;;2.40;;
3677;SDS011;1855;50.934;6.958;2023-07-30T04:38:20;4.85;;;2.30;;
3677;SDS011;1855;50.934;6.958;2023-07-30T04:40:48;4.90;;;2.50;;
3677;SDS011;1855;50.934;6.958;2023-07-30T04:43:15;5.30;;;2.37;;
3677;SDS011;1855;50.934;6.958;2023-07-30T04:45:43;3.67;;;2.25;;
3677;SDS011;1855;50.934;6.958;2023-07-30T04:48:11;3.60;;;2.03;;
3677;SDS011;1855;50.934;6.958;2023-07-30T04:50:37;4.38;;;2.25;;
3677;SDS011;1855;50.934;6.958;2023-07-30T04:53:06;4.40;;;1.80;;
3677;SDS011;1855;50.934;6.958;2023-07-30T04:55:33;4.38;;;2.08;;
3677;SDS011;1855;50.934;6.958;2023-07-30T04:58:00;4.80;;;2.20;;
3677;SDS011;1855;50.934;6.958;2023-07-30T05:00:27;4.55;;;2.03;;
3677;SDS011;1855;50.934;6.958;2023-07-30T05:02:55;4.70;;;1.90;;
3677;SDS011;1855;50.934;6.958;2023-07-30T05:05:22;4.82;;;2.30;;
3677;SDS011;1855;50.934;6.958;2023-07-30T05:07:48;5.38;;;1.90;;
3677;SDS011;1855;50.934;6.958;2023-07-30T05:10:15;4.82;;;1.60;;
3677;SDS011;1855;50.934;6.958;2023-07-30T05:12:42;5.65;;;1.70;;
3677;SDS011;1855;50.934;6.958;2023-07-30T05:15:09;3.92;;;1.80;;
3677;SDS011;1855;50.934;6.958;2023-07-30T05:17:35;3.85;;;2.28;;
3677;SDS011;1855;50.934;6.958;2023-07-30T05:20:04;2.92;;;1.80;;
3677;SDS011;1855;50.934;6.958;2023-07-30T05:22:32;4.80;;;2.05;;
3677;SDS011;1855;50.934;6.958;2023-07-30T05:24:58;4.30;;;2.40;;
3677;SDS011;1855;50.934;6.958;2023-07-30T05:27:26;4.45;;;1.80;;
3677;SDS011;1855;50.934;6.958;2023-07-30T05:29:54;3.97;;;1.90;;
3677;SDS011;1855;50.934;6.958;2023-07-30T05:32:20;3.70;;;1.83;;
3677;SDS011;1855;50.934;6.958;2023-07-30T05:34:47;3.72;;;1.70;;
3677;SDS011;1855;50.934;6.958;2023-07-30T05:37:15;4.57;;;1.75;;
3677;SDS011;1855;50.934;6.958;2023-07-30T05:39:41;4.75;;;1.88;;
3677;SDS011;1855;50.934;6.958;2023-07-30T05:42:08;3.88;;;1.70;;
3677;SDS011;1855;50.934;6.958;2023-07-30T05:44:35;3.33;;;1.60;;
3677;SDS011;1855;50.934;6.958;2023-07-30T05:47:01;3.67;;;1.80;;
3677;SDS011;1855;50.934;6.958;2023-07-30T05:49:28;3.72;;;1.90;;
3677;SDS011;1855;50.934;6.958;2023-07-30T05:51:55;4.47;;;2.20;;
3677;SDS011;1855;50.934;6.958;2023-07-30T05:54:23;6.65;;;2.45;;
3677;SDS011;1855;50.934;6.958;2023-07-30T05:56:50;6.93;;;2.60;;
3677;SDS011;1855;50.934;6.958;2023-07-30T05:59:17;5.53;;;1.80;;
3677;SDS011;1855;50.934;6.958;2023-07-30T06:01:43;4.00;;;1.92;;
3677;SDS011;1855;50.934;6.958;2023-07-30T06:04:10;3.95;;;1.80;;
3677;SDS011;1855;50.934;6.958;2023-07-30T06:06:37;3.63;;;2.15;;
3677;SDS011;1855;50.934;6.958;2023-07-30T06:09:03;4.43;;;1.60;;
3677;SDS011;1855;50.934;6.958;2023-07-30T06:11:31;4.30;;;2.20;;
3677;SDS011;1855;50.934;6.958;2023-07-30T06:13:58;3.75;;;2.10;;
3677;SDS011;1855;50.934;6.958;2023-07-30T06:16:25;3.95;;;1.95;;
3677;SDS011;1855;50.934;6.958;2023-07-30T06:18:52;4.57;;;2.20;;
3677;SDS011;1855;50.934;6.958;2023-07-30T06:21:19;4.05;;;1.90;;
3677;SDS011;1855;50.934;6.958;2023-07-30T06:23:45;6.15;;;1.80;;
3677;SDS011;1855;50.934;6.958;2023-07-30T06:26:12;3.90;;;1.73;;
3677;SDS011;1855;50.934;6.958;2023-07-30T06:28:40;3.28;;;1.75;;
3677;SDS011;1855;50.934;6.958;2023-07-30T06:31:07;5.07;;;1.73;;
3677;SDS011;1855;50.934;6.958;2023-07-30T06:33:34;4.00;;;1.60;;
3677;SDS011;1855;50.934;6.958;2023-07-30T06:36:00;3.40;;;1.80;;
3677;SDS011;1855;50.934;6.958;2023-07-30T06:38:27;3.10;;;1.70;;
3677;SDS011;1855;50.934;6.958;2023-07-30T06:40:54;4.97;;;1.60;;
3677;SDS011;1855;50.934;6.958;2023-07-30T06:43:22;3.22;;;1.50;;
3677;SDS011;1855;50.934;6.958;2023-07-30T06:45:50;3.63;;;1.60;;
3677;SDS011;1855;50.934;6.958;2023-07-30T06:48:17;4.28;;;1.75;;
3677;SDS011;1855;50.934;6.958;2023-07-30T06:50:44;2.95;;;1.15;;
3677;SDS011;1855;50.934;6.958;2023-07-30T06:53:11;3.33;;;1.50;;
3677;SDS011;1855;50.934;6.958;2023-07-30T06:55:37;2.90;;;1.33;;
3677;SDS011;1855;50.934;6.958;2023-07-30T06:58:04;2.63;;;1.25;;
3677;SDS011;1855;50.934;6.958;2023-07-30T07:00:31;4.57;;;2.13;;
3677;SDS011;1855;50.934;6.958;2023-07-30T07:02:59;3.42;;;1.52;;
3677;SDS011;1855;50.934;6.958;2023-07-30T07:05:26;3.40;;;1.27;;
3677;SDS011;1855;50.934;6.958;2023-07-30T07:07:53;3.30;;;1.50;;
3677;SDS011;1855;50.934;6.958;2023-07-30T07:10:20;6.18;;;1.70;;
3677;SDS011;1855;50.934;6.958;2023-07-30T07:12:46;3.15;;;1.20;;
3677;SDS011;1855;50.934;6.958;2023-07-30T07:15:13;4.35;;;1.40;;
3677;SDS011;1855;50.934;6.958;2023-07-30T07:17:40;5.53;;;2.72;;
3677;SDS011;1855;50.934;6.958;2023-07-30T07:20:08;3.85;;;2.03;;
3677;SDS011;1855;50.934;6.958;2023-07-30T07:22:36;2.73;;;1.30;;
3677;SDS011;1855;50.934;6.958;2023-07-30T07:25:03;3.10;;;1.42;;
3677;SDS011;1855;50.934;6.958;2023-07-30T07:27:30;3.20;;;1.20;;
3677;SDS011;1855;50.934;6.958;2023-07-30T07:29:57;2.95;;;1.25;;
3677;SDS011;1855;50.934;6.958;2023-07-30T07:32:24;3.97;;;1.20;;
3677;SDS011;1855;50.934;6.958;2023-07-30T07:34:51;4.45;;;1.60;;
3677;SDS011;1855;50.934;6.958;2023-07-30T07:37:19;3.80;;;1.40;;
3677;SDS011;1855;50.934;6.958;2023-07-30T07:39:46;3.13;;;1.40;;
3677;SDS011;1855;50.934;6.958;2023-07-30T07:42:12;2.97;;;1.45;;
3677;SDS011;1855;50.934;6.958;2023-07-30T07:44:39;3.50;;;1.50;;
3677;SDS011;1855;50.934;6.958;2023-07-30T07:47:08;3.40;;;1.50;;
3677;SDS011;1855;50.934;6.958;2023-07-30T07:49:35;3.43;;;2.07;;
3677;SDS011;1855;50.934;6.958;2023-07-30T07:52:02;5.50;;;1.70;;
3677;SDS011;1855;50.934;6.958;2023-07-30T07:54:31;4.28;;;1.60;;
3677;SDS011;1855;50.934;6.958;2023-07-30T07:56:57;4.55;;;1.70;;
3677;SDS011;1855;50.934;6.958;2023-07-30T07:59:24;4.32;;;1.90;;
3677;SDS011;1855;50.934;6.958;2023-07-30T08:01:52;5.22;;;2.00;;
3677;SDS011;1855;50.934;6.958;2023-07-30T08:04:19;4.60;;;1.80;;
3677;SDS011;1855;50.934;6.958;2023-07-30T08:06:47;4.80;;;2.20;;
3677;SDS011;1855;50.934;6.958;2023-07-30T08:09:13;4.18;;;2.00;;
3677;SDS011;1855;50.934;6.958;2023-07-30T08:11:41;5.55;;;2.40;;
3677;SDS011;1855;50.934;6.958;2023-07-30T08:14:08;5.82;;;1.88;;
3677;SDS011;1855;50.934;6.958;2023-07-30T08:16:35;5.43;;;2.00;;
3677;SDS011;1855;50.934;6.958;2023-07-30T08:19:02;6.18;;;2.08;;
3677;SDS011;1855;50.934;6.958;2023-07-30T08:21:28;4.32;;;2.00;;
3677;SDS011;1855;50.934;6.958;2023-07-30T08:23:55;5.23;;;2.10;;
3677;SDS011;1855;50.934;6.958;2023-07-30T08:26:22;6.22;;;2.05;;
3677;SDS011;1855;50.934;6.958;2023-07-30T08:28:50;4.70;;;2.30;;
3677;SDS011;1855;50.934;6.958;2023-07-30T08:31:17;4.72;;;2.38;;
3677;SDS011;1855;50.934;6.958;2023-07-30T08:33:43;5.80;;;2.60;;
3677;SDS011;1855;50.934;6.958;2023-07-30T08:36:10;6.60;;;2.55;;
3677;SDS011;1855;50.934;6.958;2023-07-30T08:38:37;4.57;;;2.00;;
3677;SDS011;1855;50.934;6.958;2023-07-30T08:41:03;5.82;;;2.40;;
3677;SDS011;1855;50.934;6.958;2023-07-30T08:43:30;6.77;;;2.60;;
3677;SDS011;1855;50.934;6.958;2023-07-30T08:45:58;5.45;;;2.60;;
3677;SDS011;1855;50.934;6.958;2023-07-30T08:48:26;7.78;;;2.70;;
3677;SDS011;1855;50.934;6.958;2023-07-30T08:50:54;8.20;;;2.92;;
3677;SDS011;1855;50.934;6.958;2023-07-30T08:53:23;6.32;;;2.30;;
3677;SDS011;1855;50.934;6.958;2023-07-30T08:55:51;5.90;;;2.97;;
3677;SDS011;1855;50.934;6.958;2023-07-30T08:58:19;8.10;;;2.80;;
3677;SDS011;1855;50.934;6.958;2023-07-30T09:00:47;7.00;;;2.80;;
3677;SDS011;1855;50.934;6.958;2023-07-30T09:03:18;6.00;;;2.70;;
3677;SDS011;1855;50.934;6.958;2023-07-30T09:05:46;5.60;;;2.05;;
3677;SDS011;1855;50.934;6.958;2023-07-30T09:08:13;7.03;;;2.33;;
3677;SDS011;1855;50.934;6.958;2023-07-30T09:10:40;4.63;;;2.00;;
3677;SDS011;1855;50.934;6.958;2023-07-30T09:13:07;6.63;;;2.40;;
3677;SDS011;1855;50.934;6.958;2023-07-30T09:15:34;5.68;;;1.80;;
3677;SDS011;1855;50.934;6.958;2023-07-30T09:18:02;4.97;;;1.80;;
3677;SDS011;1855;50.934;6.958;2023-07-30T09:20:37;5.30;;;1.80;;
3677;SDS011;1855;50.934;6.958;2023-07-30T09:23:04;4.95;;;1.70;;
3677;SDS011;1855;50.934;6.958;2023-07-30T09:25:32;5.78;;;2.10;;
3677;SDS011;1855;50.934;6.958;2023-07-30T09:27:59;4.15;;;1.70;;
3677;SDS011;1855;50.934;6.958;2023-07-30T09:30:26;6.15;;;2.40;;
3677;SDS011;1855;50.934;6.958;2023-07-30T09:32:53;4.47;;;1.70;;
3677;SDS011;1855;50.934;6.958;2023-07-30T09:35:21;4.30;;;1.70;;
3677;SDS011;1855;50.934;6.958;2023-07-30T09:37:52;4.65;;;2.40;;
3677;SDS011;1855;50.934;6.958;2023-07-30T09:40:30;4.60;;;1.80;;
3677;SDS011;1855;50.934;6.958;2023-07-30T09:42:58;3.67;;;1.90;;
3677;SDS011;1855;50.934;6.958;2023-07-30T09:45:25;4.18;;;1.90;;
3677;SDS011;1855;50.934;6.958;2023-07-30T09:47:53;5.75;;;2.28;;
3677;SDS011;1855;50.934;6.958;2023-07-30T09:50:22;4.73;;;2.30;;
3677;SDS011;1855;50.934;6.958;2023-07-30T09:52:49;5.40;;;1.63;;
3677;SDS011;1855;50.934;6.958;2023-07-30T09:55:17;4.75;;;1.73;;
3677;SDS011;1855;50.934;6.958;2023-07-30T09:57:44;4.70;;;1.70;;
3677;SDS011;1855;50.934;6.958;2023-07-30T10:00:11;4.75;;;1.58;;
3677;SDS011;1855;50.934;6.958;2023-07-30T10:02:41;4.70;;;1.63;;
3677;SDS011;1855;50.934;6.958;2023-07-30T10:05:13;4.90;;;1.75;;
3677;SDS011;1855;50.934;6.958;2023-07-30T10:07:42;4.60;;;1.42;;
3677;SDS011;1855;50.934;6.958;2023-07-30T10:10:16;4.90;;;1.85;;
3677;SDS011;1855;50.934;6.958;2023-07-30T10:12:44;4.53;;;1.95;;
3677;SDS011;1855;50.934;6.958;2023-07-30T10:15:12;4.93;;;2.10;;
3677;SDS011;1855;50.934;6.958;2023-07-30T10:17:39;5.40;;;1.70;;
3677;SDS011;1855;50.934;6.958;2023-07-30T10:20:17;4.47;;;1.75;;
3677;SDS011;1855;50.934;6.958;2023-07-30T10:22:46;4.82;;;1.90;;
3677;SDS011;1855;50.934;6.958;2023-07-30T10:25:17;4.95;;;1.85;;
3677;SDS011;1855;50.934;6.958;2023-07-30T10:27:48;4.05;;;1.80;;
3677;SDS011;1855;50.934;6.958;2023-07-30T10:30:16;4.90;;;2.00;;
3677;SDS011;1855;50.934;6.958;2023-07-30T10:32:57;3.63;;;1.60;;
3677;SDS011;1855;50.934;6.958;2023-07-30T10:35:35;4.60;;;1.57;;
3677;SDS011;1855;50.934;6.958;2023-07-30T10:38:14;6.32;;;2.33;;
3677;SDS011;1855;50.934;6.958;2023-07-30T10:40:43;5.70;;;1.98;;
3677;SDS011;1855;50.934;6.958;2023-07-30T10:43:29;4.68;;;1.60;;
3677;SDS011;1855;50.934;6.958;2023-07-30T10:45:57;3.85;;;1.42;;
3677;SDS011;1855;50.934;6.958;2023-07-30T10:48:30;3.58;;;1.48;;
3677;SDS011;1855;50.934;6.958;2023-07-30T10:51:01;3.80;;;1.73;;
3677;SDS011;1855;50.934;6.958;2023-07-30T10:53:28;3.63;;;1.50;;
3677;SDS011;1855;50.934;6.958;2023-07-30T10:55:58;3.85;;;1.48;;
3677;SDS011;1855;50.934;6.958;2023-07-30T10:58:28;4.25;;;1.70;;
3677;SDS011;1855;50.934;6.958;2023-07-30T11:00:55;4.20;;;1.50;;
3677;SDS011;1855;50.934;6.958;2023-07-30T11:03:23;3.15;;;1.00;;
3677;SDS011;1855;50.934;6.958;2023-07-30T11:05:52;4.10;;;1.40;;
3677;SDS011;1855;50.934;6.958;2023-07-30T11:08:19;3.65;;;1.20;;
3677;SDS011;1855;50.934;6.958;2023-07-30T11:10:47;3.10;;;1.38;;
3677;SDS011;1855;50.934;6.958;2023-07-30T11:13:15;3.10;;;1.40;;
3677;SDS011;1855;50.934;6.958;2023-07-30T11:15:42;4.20;;;1.30;;
3677;SDS011;1855;50.934;6.958;2023-07-30T11:18:10;4.38;;;1.35;;
3677;SDS011;1855;50.934;6.958;2023-07-30T11:20:38;3.95;;;1.33;;
3677;SDS011;1855;50.934;6.958;2023-07-30T11:23:18;4.05;;;1.58;;
3677;SDS011;1855;50.934;6.958;2023-07-30T11:25:46;3.50;;;1.20;;
3677;SDS011;1855;50.934;6.958;2023-07-30T11:28:15;3.97;;;1.40;;
3677;SDS011;1855;50.934;6.958;2023-07-30T11:30:54;2.13;;;1.00;;
3677;SDS011;1855;50.934;6.958;2023-07-30T11:33:21;2.88;;;1.20;;
3677;SDS011;1855;50.934;6.958;2023-07-30T11:35:48;3.65;;;1.02;;
3677;SDS011;1855;50.934;6.958;2023-07-30T11:38:15;3.67;;;1.50;;
3677;SDS011;1855;50.934;6.958;2023-07-30T11:40:44;2.45;;;1.10;;
3677;SDS011;1855;50.934;6.958;2023-07-30T11:43:11;3.00;;;1.30;;
3677;SDS011;1855;50.934;6.958;2023-07-30T11:45:40;3.50;;;1.10;;
3677;SDS011;1855;50.934;6.958;2023-07-30T11:48:07;2.80;;;1.08;;
3677;SDS011;1855;50.934;6.958;2023-07-30T11:50:44;4.17;;;1.23;;
3677;SDS011;1855;50.934;6.958;2023-07-30T11:53:12;3.40;;;1.30;;
3677;SDS011;1855;50.934;6.958;2023-07-30T11:55:39;3.37;;;1.20;;
3677;SDS011;1855;50.934;6.958;2023-07-30T11:58:07;3.72;;;1.20;;
3677;SDS011;1855;50.934;6.958;2023-07-30T12:00:35;3.53;;;1.05;;
3677;SDS011;1855;50.934;6.958;2023-07-30T12:03:04;2.97;;;1.50;;
3677;SDS011;1855;50.934;6.958;2023-07-30T12:05:33;3.53;;;1.20;;
3677;SDS011;1855;50.934;6.958;2023-07-30T12:08:00;3.80;;;1.20;;
3677;SDS011;1855;50.934;6.958;2023-07-30T12:10:40;3.13;;;1.10;;
3677;SDS011;1855;50.934;6.958;2023-07-30T12:13:11;3.70;;;1.48;;
3677;SDS011;1855;50.934;6.958;2023-07-30T12:15:38;2.70;;;1.17;;
3677;SDS011;1855;50.934;6.958;2023-07-30T12:18:08;3.10;;;1.30;;
3677;SDS011;1855;50.934;6.958;2023-07-30T12:20:34;2.70;;;1.20;;
3677;SDS011;1855;50.934;6.958;2023-07-30T12:23:01;3.08;;;1.30;;
3677;SDS011;1855;50.934;6.958;2023-07-30T12:25:29;4.32;;;1.73;;
3677;SDS011;1855;50.934;6.958;2023-07-30T12:27:55;3.83;;;1.33;;
3677;SDS011;1855;50.934;6.958;2023-07-30T12:30:22;3.28;;;1.30;;
3677;SDS011;1855;50.934;6.958;2023-07-30T12:32:51;5.60;;;1.45;;
3677;SDS011;1855;50.934;6.958;2023-07-30T12:35:19;5.47;;;1.40;;
3677;SDS011;1855;50.934;6.958;2023-07-30T12:37:46;5.03;;;1.60;;
3677;SDS011;1855;50.934;6.958;2023-07-30T12:40:12;4.72;;;1.35;;
3677;SDS011;1855;50.934;6.958;2023-07-30T12:42:39;3.50;;;1.27;;
3677;SDS011;1855;50.934;6.958;2023-07-30T12:45:06;4.93;;;1.40;;
3677;SDS011;1855;50.934;6.958;2023-07-30T12:47:33;4.97;;;1.33;;
3677;SDS011;1855;50.934;6.958;2023-07-30T12:50:01;4.55;;;1.40;;
3677;SDS011;1855;50.934;6.958;2023-07-30T12:52:30;4.17;;;1.20;;
3677;SDS011;1855;50.934;6.958;2023-07-30T12:54:57;2.30;;;1.10;;
3677;SDS011;1855;50.934;6.958;2023-07-30T12:57:24;3.15;;;1.30;;
3677;SDS011;1855;50.934;6.958;2023-07-30T12:59:51;3.95;;;1.30;;
3677;SDS011;1855;50.934;6.958;2023-07-30T13:02:18;2.72;;;1.10;;
3677;SDS011;1855;50.934;6.958;2023-07-30T13:04:44;1.92;;;1.10;;
3677;SDS011;1855;50.934;6.958;2023-07-30T13:07:11;4.20;;;1.33;;
3677;SDS011;1855;50.934;6.958;2023-07-30T13:09:40;4.33;;;1.30;;
3677;SDS011;1855;50.934;6.958;2023-07-30T13:12:07;3.22;;;1.40;;
3677;SDS011;1855;50.934;6.958;2023-07-30T13:14:34;3.43;;;1.30;;
3677;SDS011;1855;50.934;6.958;2023-07-30T13:17:00;4.28;;;1.33;;
3677;SDS011;1855;50.934;6.958;2023-07-30T13:19:27;2.60;;;1.20;;
3677;SDS011;1855;50.934;6.958;2023-07-30T13:21:55;3.15;;;1.30;;
3677;SDS011;1855;50.934;6.958;2023-07-30T13:24:21;3.60;;;1.10;;
3677;SDS011;1855;50.934;6.958;2023-07-30T13:26:49;4.28;;;1.60;;
3677;SDS011;1855;50.934;6.958;2023-07-30T13:29:16;5.50;;;1.35;;
3677;SDS011;1855;50.934;6.958;2023-07-30T13:31:43;5.20;;;1.77;;
3677;SDS011;1855;50.934;6.958;2023-07-30T13:34:10;3.80;;;1.40;;
3677;SDS011;1855;50.934;6.958;2023-07-30T13:36:36;2.80;;;1.10;;
3677;SDS011;1855;50.934;6.958;2023-07-30T13:39:03;2.75;;;1.17;;
3677;SDS011;1855;50.934;6.958;2023-07-30T13:41:30;3.50;;;1.40;;
3677;SDS011;1855;50.934;6.958;2023-07-30T13:43:58;3.22;;;1.20;;
3677;SDS011;1855;50.934;6.958;2023-07-30T13:46:24;2.47;;;1.30;;
3677;SDS011;1855;50.934;6.958;2023-07-30T13:48:51;2.55;;;1.30;;
3677;SDS011;1855;50.934;6.958;2023-07-30T13:51:18;3.05;;;1.15;;
3677;SDS011;1855;50.934;6.958;2023-07-30T13:53:44;2.40;;;1.00;;
3677;SDS011;1855;50.934;6.958;2023-07-30T13:56:11;2.38;;;0.95;;
3677;SDS011;1855;50.934;6.958;2023-07-30T13:58:38;3.05;;;1.23;;
3677;SDS011;1855;50.934;6.958;2023-07-30T14:01:06;2.70;;;0.90;;
3677;SDS011;1855;50.934;6.958;2023-07-30T14:03:34;2.00;;;0.88;;
3677;SDS011;1855;50.934;6.958;2023-07-30T14:06:01;2.00;;;1.00;;
3677;SDS011;1855;50.934;6.958;2023-07-30T14:08:28;2.45;;;1.10;;
3677;SDS011;1855;50.934;6.958;2023-07-30T14:10:54;3.33;;;1.20;;
3677;SDS011;1855;50.934;6.958;2023-07-30T14:13:22;2.23;;;1.00;;
3677;SDS011;1855;50.934;6.958;2023-07-30T14:15:49;3.40;;;1.40;;
3677;SDS011;1855;50.934;6.958;2023-07-30T14:18:18;3.10;;;1.25;;
3677;SDS011;1855;50.934;6.958;2023-07-30T14:20:44;3.30;;;1.40;;
3677;SDS011;1855;50.934;6.958;2023-07-30T14:23:11;3.67;;;1.30;;
3677;SDS011;1855;50.934;6.958;2023-07-30T14:25:38;3.13;;;1.40;;
3677;SDS011;1855;50.934;6.958;2023-07-30T14:28:05;2.58;;;1.00;;
3677;SDS011;1855;50.934;6.958;2023-07-30T14:30:31;4.10;;;1.05;;
3677;SDS011;1855;50.934;6.958;2023-07-30T14:32:59;2.50;;;1.33;;
3677;SDS011;1855;50.934;6.958;2023-07-30T14:35:27;3.80;;;1.38;;
3677;SDS011;1855;50.934;6.958;2023-07-30T14:37:54;3.80;;;1.10;;
3677;SDS011;1855;50.934;6.958;2023-07-30T14:40:21;2.60;;;1.00;;
3677;SDS011;1855;50.934;6.958;2023-07-30T14:42:48;3.42;;;1.30;;
3677;SDS011;1855;50.934;6.958;2023-07-30T14:45:14;2.63;;;0.80;;
3677;SDS011;1855;50.934;6.958;2023-07-30T14:47:41;2.97;;;1.60;;
3677;SDS011;1855;50.934;6.958;2023-07-30T14:50:08;3.40;;;1.30;;
3677;SDS011;1855;50.934;6.958;2023-07-30T14:52:37;2.78;;;1.20;;
3677;SDS011;1855;50.934;6.958;2023-07-30T14:55:04;3.53;;;0.90;;
3677;SDS011;1855;50.934;6.958;2023-07-30T14:57:31;2.63;;;1.10;;
3677;SDS011;1855;50.934;6.958;2023-07-30T14:59:58;4.15;;;1.50;;
3677;SDS011;1855;50.934;6.958;2023-07-30T15:02:25;3.25;;;1.30;;
3677;SDS011;1855;50.934;6.958;2023-07-30T15:04:52;3.22;;;1.30;;
3677;SDS011;1855;50.934;6.958;2023-07-30T15:07:19;5.50;;;1.20;;
3677;SDS011;1855;50.934;6.958;2023-07-30T15:09:51;3.20;;;1.20;;
3677;SDS011;1855;50.934;6.958;2023-07-30T15:12:18;4.03;;;1.40;;
3677;SDS011;1855;50.934;6.958;2023-07-30T15:14:45;4.00;;;1.50;;
3677;SDS011;1855;50.934;6.958;2023-07-30T15:17:12;3.10;;;1.20;;